sensor_id;sensor_type;location;lat;lon;timestamp;P1;durP1;ratioP1;P2;durP2;ratioP2
29294;SDS011;16305;48.566;8.846;2022-09-20T00:02:18;4.43;;;2.40;;
29294;SDS011;16305;48.566;8.846;2022-09-20T00:04:46;4.97;;;2.30;;
29294;SDS011;16305;48.566;8.846;2022-09-20T00:07:12;9.10;;;2.40;;
29294;SDS011;16305;48.566;8.846;2022-09-20T00:09:38;4.47;;;2.33;;
29294;SDS011;16305;48.566;8.846;2022-09-20T00:12:05;3.00;;;2.00;;
29294;SDS011;16305;48.566;8.846;2022-09-20T00:14:30;4.03;;;2.13;;
29294;SDS011;16305;48.566;8.846;2022-09-20T00:16:56;4.93;;;2.40;;
29294;SDS011;16305;48.566;8.846;2022-09-20T00:19:21;3.57;;;1.73;;
29294;SDS011;16305;48.566;8.846;2022-09-20T00:21:47;5.53;;;1.83;;
29294;SDS011;16305;48.566;8.846;2022-09-20T00:24:12;3.53;;;1.90;;
29294;SDS011;16305;48.566;8.846;2022-09-20T00:26:38;5.23;;;2.33;;
29294;SDS011;16305;48.566;8.846;2022-09-20T00:29:04;6.47;;;2.47;;
29294;SDS011;16305;48.566;8.846;2022-09-20T00:31:30;6.57;;;2.43;;
29294;SDS011;16305;48.566;8.846;2022-09-20T00:33:57;4.63;;;3.53;;
29294;SDS011;16305;48.566;8.846;2022-09-20T00:36:42;6.70;;;3.70;;
29294;SDS011;16305;48.566;8.846;2022-09-20T00:39:09;5.17;;;3.97;;
29294;SDS011;16305;48.566;8.846;2022-09-20T00:41:37;21.97;;;5.07;;
29294;SDS011;16305;48.566;8.846;2022-09-20T00:44:36;27.27;;;5.13;;
29294;SDS011;16305;48.566;8.846;2022-09-20T00:47:03;8.83;;;5.00;;
29294;SDS011;16305;48.566;8.846;2022-09-20T00:49:30;9.13;;;5.00;;
29294;SDS011;16305;48.566;8.846;2022-09-20T00:51:58;9.50;;;5.20;;
29294;SDS011;16305;48.566;8.846;2022-09-20T00:54:25;9.43;;;4.97;;
29294;SDS011;16305;48.566;8.846;2022-09-20T00:56:53;7.03;;;4.53;;
29294;SDS011;16305;48.566;8.846;2022-09-20T00:59:23;9.33;;;4.40;;
29294;SDS011;16305;48.566;8.846;2022-09-20T01:02:01;6.83;;;3.80;;
29294;SDS011;16305;48.566;8.846;2022-09-20T01:04:30;6.20;;;4.23;;
29294;SDS011;16305;48.566;8.846;2022-09-20T01:06:59;9.27;;;4.63;;
29294;SDS011;16305;48.566;8.846;2022-09-20T01:09:26;5.27;;;3.80;;
29294;SDS011;16305;48.566;8.846;2022-09-20T01:11:53;6.77;;;3.30;;
29294;SDS011;16305;48.566;8.846;2022-09-20T01:14:20;8.13;;;3.40;;
29294;SDS011;16305;48.566;8.846;2022-09-20T01:16:48;5.43;;;3.00;;
29294;SDS011;16305;48.566;8.846;2022-09-20T01:19:17;5.07;;;3.13;;
29294;SDS011;16305;48.566;8.846;2022-09-20T01:21:51;3.63;;;3.20;;
29294;SDS011;16305;48.566;8.846;2022-09-20T01:24:20;5.20;;;3.20;;
29294;SDS011;16305;48.566;8.846;2022-09-20T01:30:04;6.80;;;2.77;;
29294;SDS011;16305;48.566;8.846;2022-09-20T01:32:35;7.53;;;3.20;;
29294;SDS011;16305;48.566;8.846;2022-09-20T01:35:14;4.30;;;2.87;;
29294;SDS011;16305;48.566;8.846;2022-09-20T01:37:48;11.60;;;3.70;;
29294;SDS011;16305;48.566;8.846;2022-09-20T01:40:30;7.10;;;3.23;;
29294;SDS011;16305;48.566;8.846;2022-09-20T01:43:09;9.53;;;3.07;;
29294;SDS011;16305;48.566;8.846;2022-09-20T01:45:54;7.77;;;3.77;;
29294;SDS011;16305;48.566;8.846;2022-09-20T01:54:31;4.37;;;2.47;;
29294;SDS011;16305;48.566;8.846;2022-09-20T02:00:20;6.97;;;2.63;;
29294;SDS011;16305;48.566;8.846;2022-09-20T02:11:17;4.13;;;2.30;;
29294;SDS011;16305;48.566;8.846;2022-09-20T02:13:57;5.03;;;2.53;;
29294;SDS011;16305;48.566;8.846;2022-09-20T02:16:55;4.63;;;2.63;;
29294;SDS011;16305;48.566;8.846;2022-09-20T02:25:11;4.17;;;2.83;;
29294;SDS011;16305;48.566;8.846;2022-09-20T02:27:50;4.47;;;2.43;;
29294;SDS011;16305;48.566;8.846;2022-09-20T02:30:54;5.83;;;3.10;;
29294;SDS011;16305;48.566;8.846;2022-09-20T02:36:54;5.70;;;3.23;;
29294;SDS011;16305;48.566;8.846;2022-09-20T02:42:12;6.17;;;3.20;;
29294;SDS011;16305;48.566;8.846;2022-09-20T02:55:38;5.00;;;3.33;;
29294;SDS011;16305;48.566;8.846;2022-09-20T03:09:34;5.00;;;2.87;;
29294;SDS011;16305;48.566;8.846;2022-09-20T03:12:35;4.57;;;3.53;;
29294;SDS011;16305;48.566;8.846;2022-09-20T03:18:03;6.70;;;3.80;;
29294;SDS011;16305;48.566;8.846;2022-09-20T03:29:13;4.83;;;3.87;;
29294;SDS011;16305;48.566;8.846;2022-09-20T03:32:12;6.13;;;4.13;;
29294;SDS011;16305;48.566;8.846;2022-09-20T03:35:18;7.33;;;3.93;;
29294;SDS011;16305;48.566;8.846;2022-09-20T03:45:49;6.07;;;4.90;;
29294;SDS011;16305;48.566;8.846;2022-09-20T03:51:26;6.20;;;5.30;;
29294;SDS011;16305;48.566;8.846;2022-09-20T04:02:55;9.37;;;6.00;;
29294;SDS011;16305;48.566;8.846;2022-09-20T04:08:25;10.00;;;5.77;;
29294;SDS011;16305;48.566;8.846;2022-09-20T04:11:51;9.80;;;4.53;;
29294;SDS011;16305;48.566;8.846;2022-09-20T04:14:42;6.10;;;4.20;;
29294;SDS011;16305;48.566;8.846;2022-09-20T04:17:18;6.60;;;4.73;;
29294;SDS011;16305;48.566;8.846;2022-09-20T04:22:45;8.43;;;5.13;;
29294;SDS011;16305;48.566;8.846;2022-09-20T04:25:20;9.53;;;5.10;;
29294;SDS011;16305;48.566;8.846;2022-09-20T04:28:12;6.67;;;4.27;;
29294;SDS011;16305;48.566;8.846;2022-09-20T04:30:45;6.90;;;4.03;;
29294;SDS011;16305;48.566;8.846;2022-09-20T04:33:14;6.23;;;3.93;;
29294;SDS011;16305;48.566;8.846;2022-09-20T04:39:10;7.83;;;4.10;;
29294;SDS011;16305;48.566;8.846;2022-09-20T04:59:07;6.83;;;4.20;;
29294;SDS011;16305;48.566;8.846;2022-09-20T05:04:44;5.47;;;4.20;;
29294;SDS011;16305;48.566;8.846;2022-09-20T05:13:05;9.93;;;4.50;;
29294;SDS011;16305;48.566;8.846;2022-09-20T05:18:39;6.20;;;3.87;;
29294;SDS011;16305;48.566;8.846;2022-09-20T05:27:25;5.67;;;3.70;;
29294;SDS011;16305;48.566;8.846;2022-09-20T05:33:17;9.93;;;3.50;;
29294;SDS011;16305;48.566;8.846;2022-09-20T05:38:38;6.93;;;3.97;;
29294;SDS011;16305;48.566;8.846;2022-09-20T05:41:38;7.97;;;4.57;;
29294;SDS011;16305;48.566;8.846;2022-09-20T05:46:56;8.57;;;3.80;;
29294;SDS011;16305;48.566;8.846;2022-09-20T05:55:23;8.43;;;5.90;;
29294;SDS011;16305;48.566;8.846;2022-09-20T06:00:38;6.87;;;4.67;;
29294;SDS011;16305;48.566;8.846;2022-09-20T06:03:21;9.93;;;5.33;;
29294;SDS011;16305;48.566;8.846;2022-09-20T06:06:03;7.07;;;4.77;;
29294;SDS011;16305;48.566;8.846;2022-09-20T06:22:41;6.90;;;4.90;;
29294;SDS011;16305;48.566;8.846;2022-09-20T06:27:55;6.50;;;4.57;;
29294;SDS011;16305;48.566;8.846;2022-09-20T06:30:24;7.57;;;4.30;;
29294;SDS011;16305;48.566;8.846;2022-09-20T06:32:58;5.90;;;3.60;;
29294;SDS011;16305;48.566;8.846;2022-09-20T06:35:38;9.80;;;3.60;;
29294;SDS011;16305;48.566;8.846;2022-09-20T06:41:23;6.13;;;4.17;;
29294;SDS011;16305;48.566;8.846;2022-09-20T06:44:01;5.30;;;4.20;;
29294;SDS011;16305;48.566;8.846;2022-09-20T06:46:30;7.50;;;4.00;;
29294;SDS011;16305;48.566;8.846;2022-09-20T06:48:58;7.67;;;3.60;;
29294;SDS011;16305;48.566;8.846;2022-09-20T06:51:24;7.03;;;3.77;;
29294;SDS011;16305;48.566;8.846;2022-09-20T06:53:51;8.60;;;3.80;;
29294;SDS011;16305;48.566;8.846;2022-09-20T06:56:21;5.60;;;3.53;;
29294;SDS011;16305;48.566;8.846;2022-09-20T06:58:49;6.93;;;3.50;;
29294;SDS011;16305;48.566;8.846;2022-09-20T07:01:16;5.37;;;3.87;;
29294;SDS011;16305;48.566;8.846;2022-09-20T07:03:42;6.13;;;3.83;;
29294;SDS011;16305;48.566;8.846;2022-09-20T07:06:08;7.43;;;4.30;;
29294;SDS011;16305;48.566;8.846;2022-09-20T07:08:34;9.17;;;4.83;;
29294;SDS011;16305;48.566;8.846;2022-09-20T07:11:08;9.73;;;4.80;;
29294;SDS011;16305;48.566;8.846;2022-09-20T07:13:36;7.23;;;5.03;;
29294;SDS011;16305;48.566;8.846;2022-09-20T07:16:03;8.07;;;5.60;;
29294;SDS011;16305;48.566;8.846;2022-09-20T07:18:30;7.37;;;5.40;;
29294;SDS011;16305;48.566;8.846;2022-09-20T07:20:57;9.87;;;4.83;;
29294;SDS011;16305;48.566;8.846;2022-09-20T07:23:24;9.50;;;5.37;;
29294;SDS011;16305;48.566;8.846;2022-09-20T07:25:51;8.60;;;5.53;;
29294;SDS011;16305;48.566;8.846;2022-09-20T07:28:17;8.70;;;5.50;;
29294;SDS011;16305;48.566;8.846;2022-09-20T07:30:44;9.90;;;4.17;;
29294;SDS011;16305;48.566;8.846;2022-09-20T07:33:13;5.00;;;4.17;;
29294;SDS011;16305;48.566;8.846;2022-09-20T07:35:45;6.23;;;4.27;;
29294;SDS011;16305;48.566;8.846;2022-09-20T07:38:15;8.67;;;3.73;;
29294;SDS011;16305;48.566;8.846;2022-09-20T07:40:41;6.93;;;4.33;;
29294;SDS011;16305;48.566;8.846;2022-09-20T07:43:07;6.20;;;4.30;;
29294;SDS011;16305;48.566;8.846;2022-09-20T07:45:33;6.13;;;3.90;;
29294;SDS011;16305;48.566;8.846;2022-09-20T07:48:02;7.67;;;4.33;;
29294;SDS011;16305;48.566;8.846;2022-09-20T07:50:29;9.97;;;4.57;;
29294;SDS011;16305;48.566;8.846;2022-09-20T07:52:56;6.47;;;4.70;;
29294;SDS011;16305;48.566;8.846;2022-09-20T07:55:22;7.30;;;3.90;;
29294;SDS011;16305;48.566;8.846;2022-09-20T07:57:47;5.30;;;4.17;;
29294;SDS011;16305;48.566;8.846;2022-09-20T08:00:13;5.40;;;3.73;;
29294;SDS011;16305;48.566;8.846;2022-09-20T08:02:39;5.63;;;4.17;;
29294;SDS011;16305;48.566;8.846;2022-09-20T08:05:04;6.80;;;4.80;;
29294;SDS011;16305;48.566;8.846;2022-09-20T08:07:30;5.07;;;4.50;;
29294;SDS011;16305;48.566;8.846;2022-09-20T08:09:56;7.83;;;4.20;;
29294;SDS011;16305;48.566;8.846;2022-09-20T08:12:21;9.60;;;4.70;;
29294;SDS011;16305;48.566;8.846;2022-09-20T08:14:47;8.80;;;5.50;;
29294;SDS011;16305;48.566;8.846;2022-09-20T08:17:13;9.73;;;5.47;;
29294;SDS011;16305;48.566;8.846;2022-09-20T08:19:38;7.87;;;4.63;;
29294;SDS011;16305;48.566;8.846;2022-09-20T08:22:04;7.17;;;4.30;;
29294;SDS011;16305;48.566;8.846;2022-09-20T08:24:31;12.77;;;4.73;;
29294;SDS011;16305;48.566;8.846;2022-09-20T08:26:57;9.93;;;4.50;;
29294;SDS011;16305;48.566;8.846;2022-09-20T08:29:23;6.67;;;4.60;;
29294;SDS011;16305;48.566;8.846;2022-09-20T08:31:49;4.83;;;4.00;;
29294;SDS011;16305;48.566;8.846;2022-09-20T08:34:16;7.17;;;4.30;;
29294;SDS011;16305;48.566;8.846;2022-09-20T08:36:43;9.40;;;3.53;;
29294;SDS011;16305;48.566;8.846;2022-09-20T08:39:11;5.53;;;3.67;;
29294;SDS011;16305;48.566;8.846;2022-09-20T08:41:53;5.00;;;3.70;;
29294;SDS011;16305;48.566;8.846;2022-09-20T08:44:48;7.50;;;3.93;;
29294;SDS011;16305;48.566;8.846;2022-09-20T08:49:45;6.70;;;3.70;;
29294;SDS011;16305;48.566;8.846;2022-09-20T08:52:16;8.53;;;2.90;;
29294;SDS011;16305;48.566;8.846;2022-09-20T08:54:45;5.80;;;2.70;;
29294;SDS011;16305;48.566;8.846;2022-09-20T08:57:14;8.60;;;3.30;;
29294;SDS011;16305;48.566;8.846;2022-09-20T08:59:42;6.20;;;2.80;;
29294;SDS011;16305;48.566;8.846;2022-09-20T09:02:12;6.03;;;2.13;;
29294;SDS011;16305;48.566;8.846;2022-09-20T09:04:41;4.53;;;2.13;;
29294;SDS011;16305;48.566;8.846;2022-09-20T09:07:09;7.07;;;2.60;;
29294;SDS011;16305;48.566;8.846;2022-09-20T09:09:38;8.77;;;2.87;;
29294;SDS011;16305;48.566;8.846;2022-09-20T09:12:12;9.50;;;3.30;;
29294;SDS011;16305;48.566;8.846;2022-09-20T09:14:41;5.87;;;3.00;;
29294;SDS011;16305;48.566;8.846;2022-09-20T09:17:17;5.90;;;2.10;;
29294;SDS011;16305;48.566;8.846;2022-09-20T09:19:48;8.77;;;2.60;;
29294;SDS011;16305;48.566;8.846;2022-09-20T09:22:28;6.70;;;3.03;;
29294;SDS011;16305;48.566;8.846;2022-09-20T09:28:33;9.10;;;2.40;;
29294;SDS011;16305;48.566;8.846;2022-09-20T09:30:44;11.07;;;1.90;;
29294;SDS011;16305;48.566;8.846;2022-09-20T09:38:30;7.07;;;1.03;;
29294;SDS011;16305;48.566;8.846;2022-09-20T09:41:03;4.43;;;1.00;;
29294;SDS011;16305;48.566;8.846;2022-09-20T09:43:41;5.50;;;0.97;;
29294;SDS011;16305;48.566;8.846;2022-09-20T09:46:23;7.60;;;0.90;;
29294;SDS011;16305;48.566;8.846;2022-09-20T09:52:00;3.87;;;1.10;;
29294;SDS011;16305;48.566;8.846;2022-09-20T10:05:29;2.57;;;1.00;;
29294;SDS011;16305;48.566;8.846;2022-09-20T10:13:31;6.23;;;1.23;;
29294;SDS011;16305;48.566;8.846;2022-09-20T10:23:14;3.13;;;1.40;;
29294;SDS011;16305;48.566;8.846;2022-09-20T10:34:08;1.77;;;0.70;;
29294;SDS011;16305;48.566;8.846;2022-09-20T10:37:00;4.90;;;0.93;;
29294;SDS011;16305;48.566;8.846;2022-09-20T10:39:30;1.80;;;0.67;;
29294;SDS011;16305;48.566;8.846;2022-09-20T10:47:42;3.03;;;0.67;;
29294;SDS011;16305;48.566;8.846;2022-09-20T10:56:29;4.57;;;0.93;;
29294;SDS011;16305;48.566;8.846;2022-09-20T11:02:16;2.33;;;0.80;;
29294;SDS011;16305;48.566;8.846;2022-09-20T11:08:10;3.03;;;0.83;;
29294;SDS011;16305;48.566;8.846;2022-09-20T11:10:55;1.83;;;0.90;;
29294;SDS011;16305;48.566;8.846;2022-09-20T11:13:32;0.97;;;0.60;;
29294;SDS011;16305;48.566;8.846;2022-09-20T11:21:36;2.23;;;0.60;;
29294;SDS011;16305;48.566;8.846;2022-09-20T11:27:11;3.23;;;1.20;;
29294;SDS011;16305;48.566;8.846;2022-09-20T11:30:21;1.80;;;0.97;;
29294;SDS011;16305;48.566;8.846;2022-09-20T11:32:57;4.43;;;1.20;;
29294;SDS011;16305;48.566;8.846;2022-09-20T11:35:36;4.27;;;1.23;;
29294;SDS011;16305;48.566;8.846;2022-09-20T11:40:46;4.63;;;1.30;;
29294;SDS011;16305;48.566;8.846;2022-09-20T11:43:16;6.80;;;1.60;;
29294;SDS011;16305;48.566;8.846;2022-09-20T11:45:43;3.07;;;1.20;;
29294;SDS011;16305;48.566;8.846;2022-09-20T11:48:22;3.37;;;1.00;;
29294;SDS011;16305;48.566;8.846;2022-09-20T11:56:40;3.27;;;1.10;;
29294;SDS011;16305;48.566;8.846;2022-09-20T11:59:21;1.47;;;0.80;;
29294;SDS011;16305;48.566;8.846;2022-09-20T12:01:57;3.57;;;1.30;;
29294;SDS011;16305;48.566;8.846;2022-09-20T12:04:28;3.17;;;1.20;;
29294;SDS011;16305;48.566;8.846;2022-09-20T12:09:41;3.17;;;1.10;;
29294;SDS011;16305;48.566;8.846;2022-09-20T12:12:29;2.20;;;1.00;;
29294;SDS011;16305;48.566;8.846;2022-09-20T12:14:59;1.80;;;0.73;;
29294;SDS011;16305;48.566;8.846;2022-09-20T12:28:35;1.40;;;0.73;;
29294;SDS011;16305;48.566;8.846;2022-09-20T12:34:03;4.40;;;0.83;;
29294;SDS011;16305;48.566;8.846;2022-09-20T12:36:36;4.47;;;0.90;;
29294;SDS011;16305;48.566;8.846;2022-09-20T12:52:31;2.43;;;0.67;;
29294;SDS011;16305;48.566;8.846;2022-09-20T13:08:45;2.63;;;1.10;;
29294;SDS011;16305;48.566;8.846;2022-09-20T13:16:43;2.37;;;0.80;;
29294;SDS011;16305;48.566;8.846;2022-09-20T13:22:12;0.90;;;0.77;;
29294;SDS011;16305;48.566;8.846;2022-09-20T13:24:48;2.13;;;1.20;;
29294;SDS011;16305;48.566;8.846;2022-09-20T13:27:29;3.37;;;1.00;;
29294;SDS011;16305;48.566;8.846;2022-09-20T13:30:12;2.00;;;0.80;;
29294;SDS011;16305;48.566;8.846;2022-09-20T13:32:46;1.87;;;1.20;;
29294;SDS011;16305;48.566;8.846;2022-09-20T13:35:14;1.93;;;1.10;;
29294;SDS011;16305;48.566;8.846;2022-09-20T13:37:58;2.37;;;1.10;;
29294;SDS011;16305;48.566;8.846;2022-09-20T13:43:03;2.23;;;0.90;;
29294;SDS011;16305;48.566;8.846;2022-09-20T13:45:31;1.17;;;0.80;;
29294;SDS011;16305;48.566;8.846;2022-09-20T13:47:58;1.97;;;0.93;;
29294;SDS011;16305;48.566;8.846;2022-09-20T13:52:55;2.27;;;0.73;;
29294;SDS011;16305;48.566;8.846;2022-09-20T13:55:32;1.73;;;0.70;;
29294;SDS011;16305;48.566;8.846;2022-09-20T13:58:07;1.30;;;0.70;;
29294;SDS011;16305;48.566;8.846;2022-09-20T14:00:47;2.93;;;0.93;;
29294;SDS011;16305;48.566;8.846;2022-09-20T14:03:16;3.40;;;1.10;;
29294;SDS011;16305;48.566;8.846;2022-09-20T14:05:46;3.40;;;0.80;;
29294;SDS011;16305;48.566;8.846;2022-09-20T14:08:22;2.37;;;1.00;;
29294;SDS011;16305;48.566;8.846;2022-09-20T14:11:07;1.67;;;0.80;;
29294;SDS011;16305;48.566;8.846;2022-09-20T14:13:51;3.33;;;0.90;;
29294;SDS011;16305;48.566;8.846;2022-09-20T14:16:19;1.40;;;0.90;;
29294;SDS011;16305;48.566;8.846;2022-09-20T14:18:47;3.87;;;0.90;;
29294;SDS011;16305;48.566;8.846;2022-09-20T14:21:15;3.30;;;0.90;;
29294;SDS011;16305;48.566;8.846;2022-09-20T14:23:50;3.83;;;1.10;;
29294;SDS011;16305;48.566;8.846;2022-09-20T14:28:44;2.67;;;1.03;;
29294;SDS011;16305;48.566;8.846;2022-09-20T14:31:13;1.97;;;0.90;;
29294;SDS011;16305;48.566;8.846;2022-09-20T14:33:56;1.80;;;1.00;;
29294;SDS011;16305;48.566;8.846;2022-09-20T14:36:24;1.20;;;0.80;;
29294;SDS011;16305;48.566;8.846;2022-09-20T14:38:53;2.13;;;0.90;;
29294;SDS011;16305;48.566;8.846;2022-09-20T14:44:02;2.00;;;1.10;;
29294;SDS011;16305;48.566;8.846;2022-09-20T14:46:34;2.83;;;1.03;;
29294;SDS011;16305;48.566;8.846;2022-09-20T14:49:18;2.97;;;1.10;;
29294;SDS011;16305;48.566;8.846;2022-09-20T14:51:52;2.23;;;1.10;;
29294;SDS011;16305;48.566;8.846;2022-09-20T14:54:38;1.13;;;0.77;;
29294;SDS011;16305;48.566;8.846;2022-09-20T14:57:05;1.40;;;0.97;;
29294;SDS011;16305;48.566;8.846;2022-09-20T14:59:36;2.37;;;0.97;;
29294;SDS011;16305;48.566;8.846;2022-09-20T15:04:31;2.03;;;0.97;;
29294;SDS011;16305;48.566;8.846;2022-09-20T15:07:02;2.97;;;0.90;;
29294;SDS011;16305;48.566;8.846;2022-09-20T15:09:32;1.33;;;0.90;;
29294;SDS011;16305;48.566;8.846;2022-09-20T15:14:27;2.43;;;0.80;;
29294;SDS011;16305;48.566;8.846;2022-09-20T15:16:53;2.20;;;1.00;;
29294;SDS011;16305;48.566;8.846;2022-09-20T15:19:19;2.47;;;1.17;;
29294;SDS011;16305;48.566;8.846;2022-09-20T15:21:45;4.57;;;1.20;;
29294;SDS011;16305;48.566;8.846;2022-09-20T15:24:10;2.17;;;1.00;;
29294;SDS011;16305;48.566;8.846;2022-09-20T15:26:36;2.50;;;0.80;;
29294;SDS011;16305;48.566;8.846;2022-09-20T15:29:01;3.50;;;1.00;;
29294;SDS011;16305;48.566;8.846;2022-09-20T15:31:27;1.57;;;1.00;;
29294;SDS011;16305;48.566;8.846;2022-09-20T15:33:52;2.83;;;0.90;;
29294;SDS011;16305;48.566;8.846;2022-09-20T15:36:18;2.47;;;1.13;;
29294;SDS011;16305;48.566;8.846;2022-09-20T15:38:44;4.70;;;1.10;;
29294;SDS011;16305;48.566;8.846;2022-09-20T15:41:09;4.10;;;1.13;;
29294;SDS011;16305;48.566;8.846;2022-09-20T15:43:35;5.87;;;1.40;;
29294;SDS011;16305;48.566;8.846;2022-09-20T15:46:15;6.13;;;1.50;;
29294;SDS011;16305;48.566;8.846;2022-09-20T15:48:45;3.83;;;1.17;;
29294;SDS011;16305;48.566;8.846;2022-09-20T15:51:11;5.03;;;1.20;;
29294;SDS011;16305;48.566;8.846;2022-09-20T15:53:42;2.50;;;0.90;;
29294;SDS011;16305;48.566;8.846;2022-09-20T15:56:15;2.57;;;1.00;;
29294;SDS011;16305;48.566;8.846;2022-09-20T15:58:53;3.50;;;1.20;;
29294;SDS011;16305;48.566;8.846;2022-09-20T16:01:23;1.33;;;1.10;;
29294;SDS011;16305;48.566;8.846;2022-09-20T16:03:51;1.53;;;1.20;;
29294;SDS011;16305;48.566;8.846;2022-09-20T16:06:17;5.37;;;1.00;;
29294;SDS011;16305;48.566;8.846;2022-09-20T16:08:43;2.77;;;1.43;;
29294;SDS011;16305;48.566;8.846;2022-09-20T16:11:10;2.27;;;1.10;;
29294;SDS011;16305;48.566;8.846;2022-09-20T16:13:37;3.27;;;1.20;;
29294;SDS011;16305;48.566;8.846;2022-09-20T16:16:03;4.93;;;1.27;;
29294;SDS011;16305;48.566;8.846;2022-09-20T16:18:30;1.70;;;1.03;;
29294;SDS011;16305;48.566;8.846;2022-09-20T16:21:15;3.33;;;1.20;;
29294;SDS011;16305;48.566;8.846;2022-09-20T16:23:45;2.97;;;1.20;;
29294;SDS011;16305;48.566;8.846;2022-09-20T16:26:13;1.37;;;0.80;;
29294;SDS011;16305;48.566;8.846;2022-09-20T16:28:38;3.40;;;1.43;;
29294;SDS011;16305;48.566;8.846;2022-09-20T16:31:05;2.83;;;1.00;;
29294;SDS011;16305;48.566;8.846;2022-09-20T16:33:31;2.37;;;1.50;;
29294;SDS011;16305;48.566;8.846;2022-09-20T16:35:57;4.20;;;1.30;;
29294;SDS011;16305;48.566;8.846;2022-09-20T16:38:23;3.70;;;1.30;;
29294;SDS011;16305;48.566;8.846;2022-09-20T16:40:49;6.53;;;1.40;;
29294;SDS011;16305;48.566;8.846;2022-09-20T16:43:19;1.70;;;1.43;;
29294;SDS011;16305;48.566;8.846;2022-09-20T16:45:48;2.93;;;1.70;;
29294;SDS011;16305;48.566;8.846;2022-09-20T16:48:23;4.90;;;1.50;;
29294;SDS011;16305;48.566;8.846;2022-09-20T16:50:55;3.30;;;1.57;;
29294;SDS011;16305;48.566;8.846;2022-09-20T16:53:22;2.37;;;1.53;;
29294;SDS011;16305;48.566;8.846;2022-09-20T16:55:49;3.00;;;1.40;;
29294;SDS011;16305;48.566;8.846;2022-09-20T16:58:15;2.70;;;1.50;;
29294;SDS011;16305;48.566;8.846;2022-09-20T17:00:40;5.67;;;1.40;;
29294;SDS011;16305;48.566;8.846;2022-09-20T17:03:06;2.97;;;1.30;;
29294;SDS011;16305;48.566;8.846;2022-09-20T17:05:32;3.47;;;1.60;;
29294;SDS011;16305;48.566;8.846;2022-09-20T17:07:57;5.00;;;1.60;;
29294;SDS011;16305;48.566;8.846;2022-09-20T17:10:24;3.40;;;1.70;;
29294;SDS011;16305;48.566;8.846;2022-09-20T17:12:52;4.43;;;1.70;;
29294;SDS011;16305;48.566;8.846;2022-09-20T17:15:21;5.13;;;1.93;;
29294;SDS011;16305;48.566;8.846;2022-09-20T17:17:47;4.00;;;2.00;;
29294;SDS011;16305;48.566;8.846;2022-09-20T17:20:14;5.47;;;2.50;;
29294;SDS011;16305;48.566;8.846;2022-09-20T17:22:39;4.40;;;1.83;;
29294;SDS011;16305;48.566;8.846;2022-09-20T17:25:06;7.73;;;2.10;;
29294;SDS011;16305;48.566;8.846;2022-09-20T17:27:32;3.77;;;2.40;;
29294;SDS011;16305;48.566;8.846;2022-09-20T17:29:59;2.83;;;1.90;;
29294;SDS011;16305;48.566;8.846;2022-09-20T17:32:26;3.97;;;2.57;;
29294;SDS011;16305;48.566;8.846;2022-09-20T17:34:53;5.43;;;2.40;;
29294;SDS011;16305;48.566;8.846;2022-09-20T17:37:18;3.87;;;2.10;;
29294;SDS011;16305;48.566;8.846;2022-09-20T17:39:44;5.50;;;1.97;;
29294;SDS011;16305;48.566;8.846;2022-09-20T17:42:09;3.83;;;1.90;;
29294;SDS011;16305;48.566;8.846;2022-09-20T17:44:35;2.87;;;1.90;;
29294;SDS011;16305;48.566;8.846;2022-09-20T17:47:01;3.40;;;1.77;;
29294;SDS011;16305;48.566;8.846;2022-09-20T17:49:27;2.97;;;1.73;;
29294;SDS011;16305;48.566;8.846;2022-09-20T17:51:54;4.17;;;1.77;;
29294;SDS011;16305;48.566;8.846;2022-09-20T17:54:20;3.67;;;2.03;;
29294;SDS011;16305;48.566;8.846;2022-09-20T17:56:48;3.90;;;2.10;;
29294;SDS011;16305;48.566;8.846;2022-09-20T17:59:15;5.30;;;2.37;;
29294;SDS011;16305;48.566;8.846;2022-09-20T18:01:43;3.37;;;1.90;;
29294;SDS011;16305;48.566;8.846;2022-09-20T18:04:11;3.53;;;1.93;;
29294;SDS011;16305;48.566;8.846;2022-09-20T18:06:44;4.73;;;1.63;;
29294;SDS011;16305;48.566;8.846;2022-09-20T18:09:16;6.23;;;1.70;;
29294;SDS011;16305;48.566;8.846;2022-09-20T18:11:44;4.17;;;1.50;;
29294;SDS011;16305;48.566;8.846;2022-09-20T18:14:13;1.80;;;1.60;;
29294;SDS011;16305;48.566;8.846;2022-09-20T18:16:39;3.03;;;1.73;;
29294;SDS011;16305;48.566;8.846;2022-09-20T18:19:05;2.83;;;1.83;;
29294;SDS011;16305;48.566;8.846;2022-09-20T18:21:32;4.23;;;2.00;;
29294;SDS011;16305;48.566;8.846;2022-09-20T18:24:00;1.90;;;1.50;;
29294;SDS011;16305;48.566;8.846;2022-09-20T18:26:29;3.67;;;1.73;;
29294;SDS011;16305;48.566;8.846;2022-09-20T18:28:57;3.07;;;1.40;;
29294;SDS011;16305;48.566;8.846;2022-09-20T18:31:28;2.30;;;1.70;;
29294;SDS011;16305;48.566;8.846;2022-09-20T18:34:00;5.50;;;1.67;;
29294;SDS011;16305;48.566;8.846;2022-09-20T18:36:34;3.17;;;1.90;;
29294;SDS011;16305;48.566;8.846;2022-09-20T18:39:02;5.20;;;2.50;;
29294;SDS011;16305;48.566;8.846;2022-09-20T18:41:31;5.00;;;2.63;;
29294;SDS011;16305;48.566;8.846;2022-09-20T18:43:59;4.53;;;2.50;;
29294;SDS011;16305;48.566;8.846;2022-09-20T18:46:27;4.27;;;2.70;;
29294;SDS011;16305;48.566;8.846;2022-09-20T18:48:54;4.97;;;3.00;;
29294;SDS011;16305;48.566;8.846;2022-09-20T18:51:21;6.63;;;2.50;;
29294;SDS011;16305;48.566;8.846;2022-09-20T18:53:48;7.53;;;3.83;;
29294;SDS011;16305;48.566;8.846;2022-09-20T18:59:00;6.93;;;3.77;;
29294;SDS011;16305;48.566;8.846;2022-09-20T19:07:01;8.30;;;4.03;;
29294;SDS011;16305;48.566;8.846;2022-09-20T19:17:53;2.77;;;1.83;;
29294;SDS011;16305;48.566;8.846;2022-09-20T19:25:48;5.27;;;1.90;;
29294;SDS011;16305;48.566;8.846;2022-09-20T19:28:25;4.40;;;2.00;;
29294;SDS011;16305;48.566;8.846;2022-09-20T19:30:50;3.37;;;1.77;;
29294;SDS011;16305;48.566;8.846;2022-09-20T19:33:17;3.70;;;2.10;;
29294;SDS011;16305;48.566;8.846;2022-09-20T19:35:45;3.80;;;1.67;;
29294;SDS011;16305;48.566;8.846;2022-09-20T19:38:15;3.70;;;2.03;;
29294;SDS011;16305;48.566;8.846;2022-09-20T19:43:28;4.87;;;2.37;;
29294;SDS011;16305;48.566;8.846;2022-09-20T19:49:12;4.87;;;2.73;;
29294;SDS011;16305;48.566;8.846;2022-09-20T19:51:38;5.40;;;2.67;;
29294;SDS011;16305;48.566;8.846;2022-09-20T19:54:06;4.50;;;2.33;;
29294;SDS011;16305;48.566;8.846;2022-09-20T19:56:41;3.23;;;2.57;;
29294;SDS011;16305;48.566;8.846;2022-09-20T19:59:08;3.53;;;2.53;;
29294;SDS011;16305;48.566;8.846;2022-09-20T20:01:34;7.00;;;3.00;;
29294;SDS011;16305;48.566;8.846;2022-09-20T20:04:00;6.50;;;3.03;;
29294;SDS011;16305;48.566;8.846;2022-09-20T20:22:10;6.60;;;3.40;;
29294;SDS011;16305;48.566;8.846;2022-09-20T20:24:40;5.43;;;3.47;;
29294;SDS011;16305;48.566;8.846;2022-09-20T20:27:15;3.97;;;3.57;;
29294;SDS011;16305;48.566;8.846;2022-09-20T20:29:40;8.70;;;4.20;;
29294;SDS011;16305;48.566;8.846;2022-09-20T20:32:06;7.00;;;3.63;;
29294;SDS011;16305;48.566;8.846;2022-09-20T20:34:31;7.33;;;4.07;;
29294;SDS011;16305;48.566;8.846;2022-09-20T20:36:58;9.13;;;4.80;;
29294;SDS011;16305;48.566;8.846;2022-09-20T20:39:26;7.23;;;4.40;;
29294;SDS011;16305;48.566;8.846;2022-09-20T20:41:56;9.90;;;3.87;;
29294;SDS011;16305;48.566;8.846;2022-09-20T20:44:25;8.30;;;3.60;;
29294;SDS011;16305;48.566;8.846;2022-09-20T20:46:51;4.20;;;3.50;;
29294;SDS011;16305;48.566;8.846;2022-09-20T20:49:17;8.67;;;3.63;;
29294;SDS011;16305;48.566;8.846;2022-09-20T20:51:42;6.80;;;3.93;;
29294;SDS011;16305;48.566;8.846;2022-09-20T20:54:08;6.67;;;3.47;;
29294;SDS011;16305;48.566;8.846;2022-09-20T20:56:34;5.80;;;3.80;;
29294;SDS011;16305;48.566;8.846;2022-09-20T20:59:01;8.47;;;4.00;;
29294;SDS011;16305;48.566;8.846;2022-09-20T21:04:00;6.13;;;3.73;;
29294;SDS011;16305;48.566;8.846;2022-09-20T21:06:30;8.93;;;4.00;;
29294;SDS011;16305;48.566;8.846;2022-09-20T21:08:59;4.80;;;3.30;;
29294;SDS011;16305;48.566;8.846;2022-09-20T21:11:26;4.63;;;3.27;;
29294;SDS011;16305;48.566;8.846;2022-09-20T21:13:54;5.73;;;3.70;;
29294;SDS011;16305;48.566;8.846;2022-09-20T21:16:25;7.83;;;3.40;;